This is the latest recevied weather packets stored in our database for station/object KC5TIL. If no packets are shown the sender has not sent any weather packets the latest 10 day(s).
| Time | Temp. | Humidity | Pressure | Rain* | Wind** | Luminosity | Snow |
|---|---|---|---|---|---|---|---|
| 1778094815 | 14.44° C | 80% | 1016.6 hPa | 0 mm | - | 236 W/m² | - |
| 1778094513 | 14.44° C | 80% | 1016.8 hPa | 0 mm | - | 203 W/m² | - |
| 1778094209 | 13.89° C | 81% | 1017.1 hPa | 0 mm | - | 136 W/m² | - |
| 1778093906 | 13.89° C | 82% | 1017 hPa | 0 mm | - | 115 W/m² | - |
| 1778093603 | 13.89° C | 81% | 1017.1 hPa | 0 mm | - | 116 W/m² | - |
| 1778093300 | 13.89° C | 82% | 1017.1 hPa | 0 mm | - | 95 W/m² | - |
| 1778092997 | 13.89° C | 81% | 1017.1 hPa | 0 mm | - | 95 W/m² | - |
| 1778092695 | 13.89° C | 81% | 1017 hPa | 0 mm | - | 81 W/m² | - |
| 1778092389 | 13.89° C | 81% | 1017 hPa | 0 mm | - | 72 W/m² | - |
| 1778092087 | 14.44° C | 81% | 1017 hPa | 0 mm | - | 77 W/m² | - |
| 1778091784 | 13.89° C | 81% | 1016.7 hPa | 0 mm | - | 115 W/m² | - |
| 1778091482 | 13.89° C | 82% | 1016.3 hPa | 0 mm | - | 184 W/m² | - |
| 1778091179 | 13.89° C | 82% | 1016.2 hPa | 0 mm | - | 159 W/m² | - |
| 1778090876 | 13.89° C | 83% | 1015.7 hPa | 0 mm | - | 242 W/m² | - |
| 1778090572 | 13.89° C | 82% | 1015.3 hPa | 0 mm | - | 220 W/m² | - |
| 1778090268 | 13.89° C | 83% | 1015.4 hPa | 0 mm | - | 196 W/m² | - |
| 1778089965 | 13.89° C | 83% | 1015.7 hPa | 0 mm | - | 200 W/m² | - |
| 1778089663 | 13.89° C | 84% | 1015.8 hPa | 0 mm | - | 275 W/m² | - |
| 1778089360 | 13.33° C | 85% | 1015.7 hPa | 0 mm | - | 272 W/m² | - |
| 1778089058 | 13.33° C | 86% | 1016 hPa | 0 mm | - | 208 W/m² | - |
| 1778088754 | 13.33° C | 86% | 1016.2 hPa | 0 mm | - | 136 W/m² | - |
| 1778088451 | 13.33° C | 86% | 1016.5 hPa | 0 mm | - | 110 W/m² | - |
| 1778088147 | 13.33° C | 86% | 1016.5 hPa | 0 mm | - | 110 W/m² | - |
| 1778087845 | 12.78° C | 87% | 1016.4 hPa | 0 mm | - | 117 W/m² | - |
| 1778087542 | 12.78° C | 87% | 1016.2 hPa | 0 mm | - | 169 W/m² | - |
* Rain latest hour (hover to see other rain measurements)
** Current wind speed in m/s (hover to see current wind gust speed)